• Join FlightAware (Why Join?)
  • Login
  • US Flag 
02:37AM EDT


 

Airport Tracker/Info


-or-


 

Live Flight TrackerFlight Track Log ✈ SWA2403 ✈ 17-Apr-2013 ✈ KSDF - KLAS

Flight Track Log - Related Links

Times and Time Zones

All times are in EDT time to prevent confusion due to time zone crossing. See the SWA2403 flight status page for this flight to view local times or setup timezone preferences in your user account.

Time Position Orientation Groundspeed Altitude Reporting Facility
EDT Latitude Longitude Course Direction KTS MPH feet Rate Location/Type
06:37PM 38.1450 -85.7344 175° South 159 183 1,800  Level FAA TRACON SMA TRACON (SMA)
06:37PM 38.1311 -85.7328 175° South 162 186 2,300 1,320 Climbing FAA TRACON SMA TRACON (SMA)
06:37PM 38.1158 -85.7331 181° South 174 200 2,700 1,920 Climbing FAA TRACON SMA TRACON (SMA)
06:38PM 38.0950 -85.7406 196° South 201 231 3,600 2,880 Climbing FAA TRACON SMA TRACON (SMA)
06:38PM 38.0822 -85.7556 223° Southwest 212 244 4,700 2,520 Climbing FAA TRACON SMA TRACON (SMA)
06:38PM 38.0756 -85.7781 249° West 223 257 5,300 1,980 Climbing FAA TRACON SMA TRACON (SMA)
06:39PM 38.0756 -85.8061 270° West 248 285 6,000 3,000 Climbing FAA TRACON SMA TRACON (SMA)
06:39PM 38.0750 -85.8422 269° West 267 307 7,300 3,120 Climbing FAA TRACON SMA TRACON (SMA)
06:39PM 38.0742 -85.8725 268° West 275 316 8,100 2,880 Climbing FAA TRACON SMA TRACON (SMA)
06:40PM 38.0731 -85.9108 268° West 285 328 9,300 2,700 Climbing FAA TRACON SMA TRACON (SMA)
06:40PM 38.0717 -85.9425 267° West 290 334 9,900 1,200 Climbing FAA TRACON SMA TRACON (SMA)
06:40PM 38.0689 -85.9742 264° West 294 338 10,100 720 Climbing FAA TRACON SMA TRACON (SMA)
06:41PM 38.0497 -86.0081 234° Southwest 317 365 10,400 1,800 Climbing FAA TRACON SMA TRACON (SMA)
06:41PM 38.0233 -86.0197 199° South 333 383 11,300 2,700 Climbing FAA TRACON SMA TRACON (SMA)
06:41PM 37.9947 -86.0239 187° South 336 387 12,200 2,520 Climbing FAA TRACON SMA TRACON (SMA)
06:42PM 37.9653 -86.0275 186° South 342 394 13,000 2,760 Climbing FAA TRACON SMA TRACON (SMA)
06:42PM 37.9292 -86.0408 196° South 352 405 14,100 2,820 Climbing FAA TRACON SMA TRACON (SMA)
06:42PM 37.9056 -86.0642 218° Southwest 358 412 14,900 2,760 Climbing FAA TRACON SMA TRACON (SMA)
06:43PM 37.8919 -86.0986 243° Southwest 358 412 15,900 3,120 Climbing FAA TRACON SMA TRACON (SMA)
06:43PM 37.8872 -86.1461 263° West 358 412 17,000 2,820 Climbing FAA TRACON SMA TRACON (SMA)
06:43PM 37.8856 -86.1850 267° West 359 413 17,800 2,580 Climbing FAA TRACON SMA TRACON (SMA)
06:44PM 37.8828 -86.2342 266° West 362 417 18,800 2,700 Climbing FAA TRACON SMA TRACON (SMA)
06:44PM 37.8811 -86.2742 267° West 367 422 19,600 2,460 Climbing FAA TRACON SMA TRACON (SMA)
06:44PM 37.8786 -86.3144 266° West 370 426 20,400 2,520 Climbing FAA TRACON SMA TRACON (SMA)
06:45PM 37.8761 -86.3650 266° West 374 430 21,300 2,220 Climbing FAA TRACON SMA TRACON (SMA)
06:45PM 37.8739 -86.4064 266° West 379 436 22,000 2,040 Climbing FAA TRACON SMA TRACON (SMA)
06:45PM 37.8708 -86.4583 266° West 384 442 22,800 2,160 Climbing FAA TRACON SMA TRACON (SMA)
06:46PM 37.8683 -86.5006 266° West 390 449 23,400 1,800 Climbing FAA TRACON SMA TRACON (SMA)
06:46PM 37.8658 -86.5433 266° West 395 455 23,900 1,800 Climbing FAA TRACON SMA TRACON (SMA)
06:46PM 37.8642 -86.5869 267° West 399 459 24,600 1,800 Climbing FAA TRACON SMA TRACON (SMA)
06:47PM 37.8592 -86.6861 266° West 408 470 25,700 1,560 Climbing FAA TRACON SMA TRACON (SMA)
06:47PM 37.8569 -86.7311 266° West 413 475 26,200 1,500 Climbing FAA TRACON SMA TRACON (SMA)
06:48PM 37.8539 -86.7764 265° West 417 480 26,700 1,680 Climbing FAA TRACON SMA TRACON (SMA)
06:48PM 37.8514 -86.8333 267° West 422 486 27,400 1,740 Climbing FAA TRACON SMA TRACON (SMA)
06:48PM 37.8469 -86.8906 264° West 424 488 28,000 1,260 Climbing FAA TRACON SMA TRACON (SMA)
06:49PM 37.8467 -86.9136 269° West 426 490 28,200 1,320 Climbing FAA TRACON SMA TRACON (SMA)
06:50PM 37.8347 -87.0533 264° West 430 495 29,700 1,800 Climbing Indianapolis Center
06:51PM 37.8244 -87.2069 265° West 433 498 31,800 1,800 Climbing Indianapolis Center
06:52PM 37.8147 -87.3583 265° West 432 497 33,500 1,500 Climbing Indianapolis Center
06:53PM 37.8044 -87.5072 265° West 425 489 34,900 1,200 Climbing Indianapolis Center
06:54PM 37.7942 -87.6542 265° West 419 482 36,000 480 Climbing Indianapolis Center
06:55PM 37.7825 -87.8308 265° West 419 482 36,000  Level Indianapolis Center
06:56PM 37.7719 -87.9797 265° West 421 484 36,000  Level Indianapolis Center
06:57PM 37.7606 -88.1283 265° West 422 486 36,000  Level Indianapolis Center
06:58PM 37.7500 -88.2764 265° West 422 486 36,000  Level Indianapolis Center
06:59PM 37.7397 -88.4261 265° West 424 488 36,000  Level Indianapolis Center
07:00PM 37.7289 -88.5458 264° West 424 488 36,000  Level Kansas City Center
07:01PM 37.7181 -88.6981 265° West 430 495 36,000  Level Kansas City Center
07:02PM 37.7067 -88.8481 265° West 434 499 36,000  Level Kansas City Center
07:03PM 37.6928 -89.0272 264° West 431 496 36,000 180 Level Kansas City Center
07:04PM 37.6811 -89.1756 264° West 428 493 36,400 780 Climbing Kansas City Center
07:05PM 37.6689 -89.3219 264° West 425 489 37,700 720 Climbing Kansas City Center
07:06PM 37.6575 -89.4567 264° West 419 482 38,000 120 Climbing Kansas City Center
07:07PM 37.6456 -89.5992 264° West 414 476 38,000  Level Kansas City Center
07:08PM 37.6322 -89.7431 263° West 413 475 38,000  Level Kansas City Center
07:09PM 37.6169 -89.9144 264° West 410 472 38,000  Level Kansas City Center
07:10PM 37.6039 -90.0575 263° West 411 473 38,000  Level Kansas City Center
07:11PM 37.5906 -90.2000 263° West 410 472 38,000  Level Kansas City Center
07:12PM 37.5783 -90.3422 264° West 410 472 38,000  Level Kansas City Center
07:13PM 37.5644 -90.4833 263° West 406 467 38,000  Level Kansas City Center
07:14PM 37.5517 -90.6253 264° West 407 468 38,000  Level Kansas City Center
07:15PM 37.5383 -90.7633 263° West 407 468 38,000  Level Kansas City Center
07:16PM 37.5203 -90.9350 262° West 409 471 38,000  Level Kansas City Center
07:17PM 37.5067 -91.0778 263° West 411 473 38,000  Level Kansas City Center
07:18PM 37.4917 -91.2250 263° West 417 480 38,000  Level Kansas City Center
07:19PM 37.4758 -91.3725 262° West 420 483 38,000  Level Kansas City Center
07:20PM 37.4625 -91.5169 263° West 420 483 38,000  Level Kansas City Center
07:21PM 37.4467 -91.6653 262° West 421 484 38,000  Level Kansas City Center
07:22PM 37.4322 -91.8133 263° West 423 487 38,000  Level Kansas City Center
07:23PM 37.4167 -91.9633 263° West 425 489 38,000  Level Kansas City Center
07:24PM 37.4006 -92.1156 262° West 430 495 38,000  Level Kansas City Center
07:25PM 37.3836 -92.2667 262° West 433 498 38,000  Level Kansas City Center
07:26PM 37.3681 -92.4164 263° West 431 496 38,000  Level Kansas City Center
07:27PM 37.3486 -92.5928 262° West 425 489 38,000  Level Kansas City Center
07:28PM 37.3328 -92.7403 262° West 423 487 38,000  Level Kansas City Center
07:29PM 37.3156 -92.8856 262° West 421 484 38,000  Level Kansas City Center
07:30PM 37.2994 -93.0319 262° West 421 484 38,000  Level Kansas City Center
07:32PM 37.2828 -93.1747 262° West 418 481 38,000  Level Kansas City Center
07:33PM 37.2669 -93.3183 262° West 416 479 38,000  Level Kansas City Center
07:34PM 37.2492 -93.4617 261° West 415 478 38,000  Level Kansas City Center
07:35PM 37.2317 -93.6044 261° West 414 476 38,000  Level Kansas City Center
07:36PM 37.2147 -93.7461 262° West 411 473 38,000  Level Kansas City Center
07:37PM 37.1986 -93.8875 262° West 410 472 38,000  Level Kansas City Center
07:38PM 37.1778 -94.0533 261° West 403 464 38,000  Level Kansas City Center
07:39PM 37.1622 -94.1736 261° West 401 461 38,000  Level Kansas City Center
07:40PM 37.1444 -94.3128 261° West 404 465 38,000  Level Kansas City Center
07:41PM 37.1233 -94.4847 261° West 413 475 38,000  Level Kansas City Center
07:42PM 37.1050 -94.6261 261° West 413 475 38,000  Level Kansas City Center
07:43PM 37.0858 -94.7644 260° West 407 468 38,000  Level Kansas City Center
07:44PM 37.0683 -94.9019 261° West 403 464 38,000  Level Kansas City Center
07:45PM 37.0503 -95.0383 261° West 400 460 38,000  Level Kansas City Center
07:47PM 37.0144 -95.3058 261° West 392 451 38,000  Level Kansas City Center
07:48PM 36.9958 -95.4381 260° West 390 449 38,000  Level Kansas City Center
07:49PM 36.9744 -95.5967 260° West 388 447 38,000  Level Kansas City Center
07:50PM 36.9558 -95.7281 260° West 385 443 38,000  Level Kansas City Center
07:51PM 36.9369 -95.8578 260° West 383 441 38,000  Level Kansas City Center
07:52PM 36.9194 -95.9856 260° West 378 435 38,000  Level Kansas City Center
07:53PM 36.9011 -96.1092 260° West 369 425 38,000  Level Kansas City Center
07:54PM 36.8844 -96.2317 260° West 362 417 38,000  Level Kansas City Center
07:55PM 36.8669 -96.3542 260° West 360 414 38,000  Level Kansas City Center
07:56PM 36.8447 -96.5003 259° West 358 412 38,000  Level Kansas City Center
07:57PM 36.8303 -96.6256 262° West 362 417 38,000  Level Kansas City Center
07:58PM 36.8236 -96.7511 266° West 363 418 38,000  Level Kansas City Center
07:59PM 36.8167 -96.8764 266° West 364 419 38,000  Level Kansas City Center
08:00PM 36.8153 -97.0022 269° West 364 419 38,000  Level Kansas City Center
08:01PM 36.8456 -97.1442 285° West 378 435 38,000  Level Kansas City Center
08:02PM 36.8717 -97.2672 285° West 381 438 38,000  Level Kansas City Center
08:03PM 36.8972 -97.3950 284° West 380 437 38,000  Level Kansas City Center
08:04PM 36.9086 -97.5264 276° West 377 434 38,000  Level Kansas City Center
08:05PM 36.8972 -97.6533 264° West 374 430 38,000  Level Kansas City Center
08:06PM 36.8861 -97.7850 264° West 376 433 38,000  Level Kansas City Center
08:07PM 36.8764 -97.9158 265° West 378 435 38,000  Level Kansas City Center
08:08PM 36.8647 -98.0456 264° West 378 435 38,000  Level Kansas City Center
08:10PM 36.8547 -98.1764 265° West 377 434 38,000  Level Kansas City Center
08:11PM 36.8428 -98.3333 265° West 377 434 38,000  Level Kansas City Center
08:12PM 36.8314 -98.4628 264° West 377 434 38,000  Level Kansas City Center
08:13PM 36.8186 -98.5925 263° West 376 433 38,000  Level Kansas City Center
08:14PM 36.8072 -98.7239 264° West 377 434 38,000  Level Kansas City Center
08:15PM 36.7958 -98.8558 264° West 380 437 38,000  Level Kansas City Center
08:16PM 36.7842 -98.9892 264° West 382 440 38,000  Level Kansas City Center
08:17PM 36.7725 -99.1272 264° West 391 450 38,000  Level Kansas City Center
08:18PM 36.7597 -99.2592 263° West 388 447 38,000  Level Kansas City Center
08:19PM 36.7450 -99.4158 263° West 381 438 38,000  Level Kansas City Center
08:20PM 36.7333 -99.5467 264° West 381 438 38,000  Level Kansas City Center
08:21PM 36.7206 -99.6772 263° West 381 438 38,000  Level Kansas City Center
08:22PM 36.7089 -99.8067 264° West 378 435 38,000  Level Kansas City Center
08:23PM 36.6969 -99.9358 263° West 376 433 38,000  Level Kansas City Center
08:24PM 36.6847 -100.0644 263° West 375 432 38,000  Level Kansas City Center
08:25PM 36.6711 -100.1942 263° West 376 433 38,000  Level Kansas City Center
08:26PM 36.6586 -100.3214 263° West 373 429 38,000  Level Kansas City Center
08:27PM 36.6442 -100.4653 263° West 371 427 38,000  Level Kansas City Center
08:28PM 36.6311 -100.5889 263° West 374 430 38,000  Level Kansas City Center
08:29PM 36.6156 -100.7308 262° West 372 428 38,000  Level Kansas City Center
08:30PM 36.6119 -100.8561 268° West 376 433 38,000  Level Kansas City Center
08:31PM 36.6083 -100.9997 268° West 372 428 38,000  Level Kansas City Center
08:32PM 36.6039 -101.1225 267° West 371 427 38,000  Level Kansas City Center
08:33PM 36.6014 -101.2411 269° West 368 423 38,000  Level Albuquerque Center
08:34PM 36.5981 -101.3831 268° West 368 423 38,000  Level Albuquerque Center
08:35PM 36.5936 -101.5044 267° West 367 422 38,000  Level Albuquerque Center
08:36PM 36.5897 -101.6464 268° West 367 422 38,000  Level Albuquerque Center
08:37PM 36.5850 -101.7694 267° West 369 425 38,000  Level Albuquerque Center
08:38PM 36.5819 -101.8967 268° West 371 427 38,000  Level Albuquerque Center
08:39PM 36.5772 -102.0228 267° West 368 423 38,000  Level Albuquerque Center
08:40PM 36.5714 -102.1778 267° West 374 430 38,000  Level Albuquerque Center
08:41PM 36.5672 -102.3075 268° West 376 433 38,000  Level Albuquerque Center
08:42PM 36.5619 -102.4347 267° West 372 428 38,000  Level Albuquerque Center
08:43PM 36.5569 -102.5622 267° West 371 427 38,000  Level Albuquerque Center
08:44PM 36.5528 -102.6917 268° West 375 432 38,000  Level Albuquerque Center
08:45PM 36.5467 -102.8167 267° West 369 425 38,000  Level Albuquerque Center
08:46PM 36.5422 -102.9617 268° West 366 421 38,000  Level Albuquerque Center
08:47PM 36.5367 -103.0875 267° West 364 419 38,000  Level Albuquerque Center
08:49PM 36.5314 -103.2122 267° West 361 415 38,000  Level Albuquerque Center
08:50PM 36.5261 -103.3367 267° West 359 413 38,000  Level Albuquerque Center
08:51PM 36.5192 -103.4800 267° West 355 409 38,000  Level Albuquerque Center
08:52PM 36.5131 -103.6072 267° West 362 417 38,000  Level Albuquerque Center
08:53PM 36.5067 -103.7356 266° West 368 423 38,000  Level Albuquerque Center
08:54PM 36.5011 -103.8628 267° West 368 423 38,000  Level Albuquerque Center
08:55PM 36.4947 -103.9914 267° West 369 425 38,000  Level Albuquerque Center
08:56PM 36.4878 -104.1169 266° West 365 420 38,000  Level Albuquerque Center
08:57PM 36.4808 -104.2414 266° West 362 417 38,000  Level Albuquerque Center
08:58PM 36.4739 -104.3881 267° West 363 418 38,000  Level Albuquerque Center
08:59PM 36.4661 -104.5111 266° West 358 412 38,000  Level Albuquerque Center
09:00PM 36.4600 -104.6364 267° West 360 414 38,000  Level Albuquerque Center
09:01PM 36.4531 -104.7625 266° West 362 417 38,000  Level Albuquerque Center
09:02PM 36.4453 -104.8906 266° West 367 422 38,000  Level Albuquerque Center
09:03PM 36.4381 -105.0153 266° West 364 419 38,000  Level Albuquerque Center
09:04PM 36.4306 -105.1422 266° West 365 420 38,000  Level Albuquerque Center
09:05PM 36.4219 -105.2742 265° West 376 433 38,000  Level Albuquerque Center
09:06PM 36.4128 -105.4256 266° West 377 434 38,000  Level Albuquerque Center
09:07PM 36.4044 -105.5375 265° West 369 425 38,000  Level Albuquerque Center
09:08PM 36.3969 -105.6642 266° West 368 423 38,000  Level Albuquerque Center
09:09PM 36.3883 -105.7911 265° West 369 425 38,000  Level Albuquerque Center
09:10PM 36.3800 -105.9489 266° West 380 437 38,000  Level Albuquerque Center
09:11PM 36.3711 -106.0792 265° West 380 437 38,000  Level Albuquerque Center
09:12PM 36.3622 -106.2061 265° West 380 437 38,000  Level Albuquerque Center
09:13PM 36.3514 -106.3525 265° West 381 438 38,000  Level Albuquerque Center
09:14PM 36.3422 -106.4758 265° West 377 434 38,000  Level Albuquerque Center
09:15PM 36.3322 -106.6225 265° West 381 438 38,000  Level Albuquerque Center
09:16PM 36.3228 -106.7483 265° West 383 441 38,000  Level Albuquerque Center
09:17PM 36.3139 -106.8761 265° West 386 444 38,000  Level Albuquerque Center
09:18PM 36.3017 -107.0261 264° West 390 449 38,000  Level Albuquerque Center
09:19PM 36.2922 -107.1542 265° West 390 449 38,000  Level Albuquerque Center
09:20PM 36.2806 -107.3031 264° West 389 448 38,000  Level Albuquerque Center
09:22PM 36.2714 -107.4325 265° West 393 452 38,000  Level Albuquerque Center
09:23PM 36.2586 -107.5808 264° West 389 448 38,000  Level Albuquerque Center
09:24PM 36.2486 -107.7097 265° West 391 450 38,000  Level Albuquerque Center
09:25PM 36.2358 -107.8611 264° West 395 455 38,000  Level Albuquerque Center
09:25PM 36.2322 -107.9025 264° West 395 455 38,000  Level Denver Center
09:26PM 36.2217 -108.0333 264° West 396 456 38,000  Level Denver Center
09:27PM 36.2078 -108.1844 264° West 396 456 38,000  Level Denver Center
09:28PM 36.1969 -108.3119 264° West 392 451 38,000  Level Denver Center
09:29PM 36.1844 -108.4608 264° West 390 449 38,000  Level Denver Center
09:30PM 36.1731 -108.5869 264° West 388 447 38,000  Level Denver Center
09:31PM 36.1600 -108.7336 264° West 387 445 38,000  Level Denver Center
09:32PM 36.1483 -108.8561 263° West 384 442 38,000  Level Denver Center
09:33PM 36.1356 -108.9983 264° West 384 442 38,000  Level Denver Center
09:34PM 36.1236 -109.1211 263° West 381 438 38,000  Level Denver Center
09:35PM 36.1158 -109.2044 263° West 380 437 38,000  Level Albuquerque Center
09:36PM 36.0986 -109.3944 264° West 387 445 38,000  Level Denver Center
09:37PM 36.0864 -109.5200 263° West 386 444 38,000  Level Denver Center
09:38PM 36.0728 -109.6647 263° West 381 438 38,000  Level Denver Center
09:39PM 36.0608 -109.7889 263° West 381 438 38,000  Level Denver Center
09:40PM 36.0472 -109.9142 262° West 384 442 38,000  Level Denver Center
09:41PM 36.0328 -110.0578 263° West 379 436 38,000  Level Denver Center
09:42PM 36.0194 -110.1967 263° West 382 440 38,000  Level Denver Center
09:43PM 36.0050 -110.3278 262° West 386 444 38,000 -120 Level Denver Center
09:44PM 35.9917 -110.4606 263° West 388 447 37,800 -600 Descending Denver Center
09:45PM 35.9775 -110.5908 262° West 385 443 36,800 -1,020 Descending Denver Center
09:46PM 35.9633 -110.7228 262° West 386 444 35,800 -1,020 Descending Denver Center
09:47PM 35.9489 -110.8542 262° West 387 445 34,800 -1,020 Descending Denver Center
09:49PM 35.9347 -110.9828 262° West 382 440 33,800 -1,020 Descending Denver Center
09:50PM 35.9225 -111.1044 263° West 365 420 32,800 -1,020 Descending Denver Center
09:51PM 35.9078 -111.2250 261° West 358 412 31,800 -1,020 Descending Denver Center
09:52PM 35.8947 -111.3422 262° West 350 403 30,800 -900 Descending Denver Center
09:53PM 35.8803 -111.4828 263° West 346 398 30,000 -420 Descending Denver Center
09:54PM 35.8656 -111.5992 261° West 344 396 30,000  Level Denver Center
09:55PM 35.8625 -111.7183 268° West 346 398 30,000  Level Denver Center
09:55PM 35.8603 -111.7181 174° South 342 394 30,000  Level Los Angeles Center
09:56PM 35.8553 -111.8706 268° West 367 422 30,000  Level Los Angeles Center
09:57PM 35.8503 -111.9964 267° West 369 425 30,000  Level Los Angeles Center
09:58PM 35.8461 -112.1458 268° West 365 420 30,000  Level Los Angeles Center
09:59PM 35.8408 -112.2697 267° West 365 420 30,000  Level Los Angeles Center
10:00PM 35.8361 -112.4181 268° West 363 418 30,000  Level Los Angeles Center
10:01PM 35.8300 -112.5411 267° West 363 418 30,000  Level Los Angeles Center
10:02PM 35.8261 -112.6636 268° West 362 417 30,000  Level Los Angeles Center
10:03PM 35.8203 -112.7869 267° West 364 419 30,000  Level Los Angeles Center
10:04PM 35.8133 -112.9347 267° West 364 419 30,000  Level Los Angeles Center
10:05PM 35.8086 -113.0586 267° West 366 421 30,000  Level Los Angeles Center
10:06PM 35.8033 -113.1842 267° West 371 427 30,000  Level Los Angeles Center
10:07PM 35.7975 -113.3103 267° West 372 428 30,000 -1,080 Level Los Angeles Center
10:08PM 35.7914 -113.4350 267° West 370 426 27,900 -2,100 Descending Los Angeles Center
10:09PM 35.7856 -113.5547 267° West 356 410 25,700 -2,220 Descending Los Angeles Center
10:11PM 35.7800 -113.6853 267° West 352 405 23,400 -2,160 Descending Los Angeles Center
10:12PM 35.7736 -113.8025 266° West 344 396 21,300 -2,100 Descending Los Angeles Center
10:13PM 35.7678 -113.9181 266° West 338 389 19,200 -2,220 Descending Los Angeles Center
10:14PM 35.7600 -114.0569 266° West 338 389 16,800 -2,280 Descending Los Angeles Center
10:14PM 35.7581 -114.0892 266° West 338 389 16,100 -1,980 Descending Los Angeles Center
10:15PM 35.7542 -114.1861 267° West 336 387 14,500 -1,800 Descending Los Angeles Center
10:16PM 35.7489 -114.2800 266° West 323 372 13,100 -1,260 Descending Los Angeles Center
10:17PM 35.8036 -114.3592 310° West 300 345 12,100 -1,020 Descending Los Angeles Center
10:18PM 35.8600 -114.4361 312° West 300 345 11,100 -1,020 Descending Los Angeles Center
10:19PM 35.9158 -114.5128 312° West 301 346 10,100 -840 Descending Los Angeles Center
10:20PM 35.9678 -114.5828 313° West 283 326 9,400 -960 Descending Los Angeles Center
10:21PM 36.0275 -114.6622 313° West 267 307 8,200 -720 Descending Los Angeles Center
10:22PM 36.0736 -114.7294 310° West 261 300 8,000 -540 Descending Los Angeles Center
10:23PM 36.0747 -114.8169 271° West 258 297 7,100 -1,260 Descending Los Angeles Center
10:24PM 36.0731 -114.9164 269° West 259 298 5,500 -1,440 Descending Los Angeles Center
10:25PM 36.0747 -114.9931 272° West 210 242 4,200 -1,140 Descending Los Angeles Center
10:26PM 36.0736 -115.0572 269° West 185 213 3,200 -960 Descending Los Angeles Center
10:27PM 36.0742 -115.1103 271° West 153 176 2,300 -900 Descending Los Angeles Center
10:29PM 36.0667 -115.1500 270° West  Level FlightAware Approximate
10:36PM 36.0801 -115.1523 270° West  Level Estimated